Bw Columbia — 9V2880 — position and weather

sailwx.info

Track history (hours):
 
Tides and Currents Weather Stations Pressure Air Temp Water Temp Dewpoint Dewpoint Depression Visibility Wind Speed Wind Dir Waves Ship Positions

Bw Columbia

Last reported at 2018-Feb-18 14:40 UTC. Time now 2018-Feb-21 19:31 UTC.
Position S 32°20' E 030°28'.

Length 228 m; draft 12.5 m.

Type: Tanker. MMSI: 564977000.

Date/timePositionNaut miles runAvg speedWind from/ knotsBaromVisibWave heightAir tempDewpointWater temp
2018-Feb-18 14:40S 32°20' E 030°28'612.7
2018-Feb-18 14:12S 32°16' E 030°33'1612.6
2018-Feb-18 12:54S 32°05' E 030°47'512.7
2018-Feb-18 12:30S 32°01' E 030°51'612.5
2018-Feb-18 12:00S 31°57' E 030°57'712.6
2018-Feb-18 11:28S 31°52' E 031°03'912.5
2018-Feb-18 10:43S 31°46' E 031°11'812.4
2018-Feb-18 10:06S 31°41' E 031°18'212.6
2018-Feb-18 09:59S 31°40' E 031°19'712.4
2018-Feb-18 09:25S 31°36' E 031°25'512.2
2018-Feb-18 09:00S 31°32' E 031°30'611.8
2018-Feb-18 08:28S 31°28' E 031°35'1612.4
2018-Feb-18 07:11S 31°14' E 031°44'412.9
2018-Feb-18 06:51S 31°10' E 031°47'512.4
2018-Feb-18 06:24S 31°06' E 031°50'1612.7
2018-Feb-18 05:07S 30°52' E 032°01'312.5
2018-Feb-18 04:52S 30°49' E 032°03'613.0
2018-Feb-18 04:24S 30°44' E 032°06'513.1
2018-Feb-18 03:59S 30°39' E 032°10'913.5
2018-Feb-18 03:21S 30°32' E 032°15'1613.4
2018-Feb-18 02:11S 30°19' E 032°25'  
Track history (hours):
 
Tides and Currents Weather Stations Pressure Air Temp Water Temp Dewpoint Dewpoint Depression Visibility Wind Speed Wind Dir Waves Ship Positions

Bw Columbia

Last reported at 2018-Feb-18 14:40 UTC. Time now 2018-Feb-21 19:31 UTC.
Position S 32°20' E 030°28'.

Length 228 m; draft 12.5 m.

Type: Tanker. MMSI: 564977000.

Date/timePositionNaut miles runAvg speedWind from/ knotsBaromVisibWave heightAir tempDewpointWater temp
2018-Feb-18 14:40S 32°20' E 030°28'612.7
2018-Feb-18 14:12S 32°16' E 030°33'1612.6
2018-Feb-18 12:54S 32°05' E 030°47'512.7
2018-Feb-18 12:30S 32°01' E 030°51'612.5
2018-Feb-18 12:00S 31°57' E 030°57'712.6
2018-Feb-18 11:28S 31°52' E 031°03'912.5
2018-Feb-18 10:43S 31°46' E 031°11'812.4
2018-Feb-18 10:06S 31°41' E 031°18'212.6
2018-Feb-18 09:59S 31°40' E 031°19'712.4
2018-Feb-18 09:25S 31°36' E 031°25'512.2
2018-Feb-18 09:00S 31°32' E 031°30'611.8
2018-Feb-18 08:28S 31°28' E 031°35'1612.4
2018-Feb-18 07:11S 31°14' E 031°44'412.9
2018-Feb-18 06:51S 31°10' E 031°47'512.4
2018-Feb-18 06:24S 31°06' E 031°50'1612.7
2018-Feb-18 05:07S 30°52' E 032°01'312.5
2018-Feb-18 04:52S 30°49' E 032°03'613.0
2018-Feb-18 04:24S 30°44' E 032°06'513.1
2018-Feb-18 03:59S 30°39' E 032°10'913.5
2018-Feb-18 03:21S 30°32' E 032°15'1613.4
2018-Feb-18 02:11S 30°19' E 032°25'  

Dump ship's entire track history